createdAt,value
2023-06-19T00:00:31.366Z,100859.19
2023-06-19T00:02:58.216Z,100856.47
2023-06-19T00:05:26.056Z,100848.47
2023-06-19T00:07:52.835Z,100854.69
2023-06-19T00:10:19.361Z,100847.59
2023-06-19T00:12:45.861Z,100851.19
2023-06-19T00:15:12.523Z,100847.72
2023-06-19T00:17:39.080Z,100846.00
2023-06-19T00:20:09.140Z,100858.38
2023-06-19T00:22:35.571Z,100857.47
2023-06-19T00:25:02.118Z,100853.00
2023-06-19T00:27:28.547Z,100853.94
2023-06-19T00:29:55.067Z,100860.16
2023-06-19T00:32:21.535Z,100862.88
2023-06-19T00:34:48.045Z,100857.50
2023-06-19T00:37:14.608Z,100853.94
2023-06-19T00:39:45.023Z,100854.06
2023-06-19T00:42:11.773Z,100852.31
2023-06-19T00:44:38.219Z,100854.94
2023-06-19T00:47:05.390Z,100854.94
2023-06-19T00:49:32.650Z,100850.50
2023-06-19T00:51:59.354Z,100854.03
2023-06-19T00:54:26.386Z,100862.00
2023-06-19T00:56:53.518Z,100861.91
2023-06-19T00:59:20.753Z,100857.47
2023-06-19T01:01:47.581Z,100855.63
2023-06-19T01:04:14.684Z,100849.44
2023-06-19T01:06:59.790Z,100846.81
2023-06-19T01:09:32.071Z,100849.44
2023-06-19T01:12:05.868Z,100841.44
2023-06-19T01:14:38.937Z,100844.09
2023-06-19T01:17:06.504Z,100846.66
2023-06-19T01:19:33.061Z,100845.81
2023-06-19T01:22:04.109Z,100843.13
2023-06-19T01:24:30.571Z,100840.53
2023-06-19T01:26:57.204Z,100845.00
2023-06-19T01:29:23.863Z,100837.91
2023-06-19T01:31:53.924Z,100828.97
2023-06-19T01:34:22.438Z,100826.44
2023-06-19T01:36:52.559Z,100830.84
2023-06-19T01:39:20.696Z,100822.78
2023-06-19T01:41:48.385Z,100829.16
2023-06-19T01:44:15.086Z,100821.13
2023-06-19T01:46:41.678Z,100826.34
2023-06-19T01:49:10.063Z,100820.22
2023-06-19T01:51:36.938Z,100825.53
2023-06-19T01:54:04.081Z,100819.28
2023-06-19T01:56:30.533Z,100811.38
2023-06-19T01:58:56.946Z,100811.38
2023-06-19T02:01:23.746Z,100811.31
2023-06-19T02:03:50.252Z,100816.66
2023-06-19T02:06:16.697Z,100806.91
2023-06-19T02:08:43.150Z,100810.47
2023-06-19T02:11:09.589Z,100802.59
2023-06-19T02:13:37.114Z,100803.44
2023-06-19T02:16:05.207Z,100799.84
2023-06-19T02:18:31.640Z,100799.88
2023-06-19T02:20:58.073Z,100795.47
2023-06-19T02:23:24.657Z,100790.22
2023-06-19T02:25:51.086Z,100788.31
2023-06-19T02:28:17.499Z,100788.38
2023-06-19T02:30:43.917Z,100790.16
2023-06-19T02:33:10.375Z,100794.53
2023-06-19T02:35:36.817Z,100784.81
2023-06-19T02:38:05.629Z,100791.88
2023-06-19T02:40:32.050Z,100789.22
2023-06-19T02:42:58.452Z,100784.94
2023-06-19T02:45:24.891Z,100785.75
2023-06-19T02:47:53.028Z,100788.47
2023-06-19T02:50:19.499Z,100786.69
2023-06-19T02:52:45.914Z,100788.25
2023-06-19T02:55:12.332Z,100786.59
2023-06-19T02:57:38.768Z,100783.06
2023-06-19T03:00:10.255Z,100782.19
2023-06-19T03:02:36.754Z,100778.53
2023-06-19T03:05:03.766Z,100776.84
2023-06-19T03:07:30.367Z,100781.34
2023-06-19T03:09:56.778Z,100776.09
2023-06-19T03:12:23.224Z,100780.53
2023-06-19T03:14:49.639Z,100779.69
2023-06-19T03:17:16.083Z,100784.16
2023-06-19T03:19:42.539Z,100787.72
2023-06-19T03:22:08.950Z,100786.84
2023-06-19T03:24:35.445Z,100792.13
2023-06-19T03:27:01.951Z,100799.19
2023-06-19T03:29:28.904Z,100795.66
2023-06-19T03:31:55.342Z,100796.59
2023-06-19T03:34:21.774Z,100799.25
2023-06-19T03:36:48.223Z,100801.91
2023-06-19T03:39:15.175Z,100808.94
2023-06-19T03:41:41.621Z,100803.66
2023-06-19T03:44:08.116Z,100808.19
2023-06-19T03:46:34.609Z,100808.16
2023-06-19T03:49:01.124Z,100816.06
2023-06-19T03:51:30.142Z,100811.72
2023-06-19T03:53:56.629Z,100804.59
2023-06-19T03:56:23.121Z,100808.16
2023-06-19T03:58:49.547Z,100804.56
2023-06-19T04:01:16.022Z,100795.81
2023-06-19T04:03:42.570Z,100792.31
2023-06-19T04:06:09.051Z,100805.47
2023-06-19T04:08:35.501Z,100797.56
2023-06-19T04:11:01.947Z,100787.84
2023-06-19T04:13:28.378Z,100781.72
2023-06-19T04:15:54.817Z,100781.69
2023-06-19T04:18:21.275Z,100774.69
2023-06-19T04:20:47.933Z,100775.63
2023-06-19T04:23:14.424Z,100776.53
2023-06-19T04:25:40.841Z,100779.06
2023-06-19T04:28:07.309Z,100780.88
2023-06-19T04:30:33.726Z,100790.59
2023-06-19T04:33:00.291Z,100792.38
2023-06-19T04:35:27.608Z,100782.72
2023-06-19T04:37:54.854Z,100791.63
2023-06-19T04:40:21.440Z,100794.28
2023-06-19T04:42:48.075Z,100804.94
2023-06-19T04:45:14.507Z,100803.22
2023-06-19T04:47:52.594Z,100814.69
2023-06-19T04:50:19.452Z,100801.38
2023-06-19T04:52:45.865Z,100804.06
2023-06-19T04:55:12.286Z,100807.63
2023-06-19T04:57:38.746Z,100805.84
2023-06-19T05:00:07.851Z,100810.22
2023-06-19T05:02:34.978Z,100811.16
2023-06-19T05:05:03.923Z,100805.84
2023-06-19T05:07:33.537Z,100813.84
2023-06-19T05:10:00.288Z,100818.19
2023-06-19T05:12:26.810Z,100818.25
2023-06-19T05:14:53.234Z,100820.00
2023-06-19T05:17:19.772Z,100822.63
2023-06-19T05:19:46.235Z,100822.75
2023-06-19T05:22:12.724Z,100823.66
2023-06-19T05:24:39.195Z,100826.28
2023-06-19T05:27:06.086Z,100819.19
2023-06-19T05:29:33.494Z,100823.63
2023-06-19T05:31:59.943Z,100824.53
2023-06-19T05:34:26.343Z,100823.72
2023-06-19T05:36:52.781Z,100824.59
2023-06-19T05:39:20.017Z,100821.91
2023-06-19T05:41:49.450Z,100822.81
2023-06-19T05:44:17.724Z,100828.13
2023-06-19T05:46:44.258Z,100828.09
2023-06-19T05:49:10.704Z,100825.53
2023-06-19T05:51:37.210Z,100821.97
2023-06-19T05:54:04.958Z,100822.91
2023-06-19T05:56:32.097Z,100816.66
2023-06-19T05:58:58.545Z,100823.75
2023-06-19T06:01:26.191Z,100816.66
2023-06-19T06:03:52.723Z,100815.81
2023-06-19T06:06:19.142Z,100805.16
2023-06-19T06:08:45.579Z,100806.94
2023-06-19T06:11:12.042Z,100806.91
2023-06-19T06:13:38.476Z,100815.81
2023-06-19T06:16:05.025Z,100810.47
2023-06-19T06:18:31.494Z,100809.59
2023-06-19T06:21:00.111Z,100812.22
2023-06-19T06:23:26.776Z,100815.78
2023-06-19T06:25:53.326Z,100810.47
2023-06-19T06:28:19.769Z,100809.59
2023-06-19T06:30:46.212Z,100818.47
2023-06-19T06:33:12.658Z,100815.75
2023-06-19T06:35:39.357Z,100814.88
2023-06-19T06:38:05.976Z,100826.38
2023-06-19T06:40:32.475Z,100816.63
2023-06-19T06:42:59.235Z,100829.00
2023-06-19T06:45:27.943Z,100830.69
2023-06-19T06:47:54.653Z,100828.94
2023-06-19T06:50:21.426Z,100824.56
2023-06-19T06:52:48.077Z,100828.09
2023-06-19T06:55:14.784Z,100829.84
2023-06-19T06:57:41.183Z,100832.50
2023-06-19T07:00:10.878Z,100836.06
2023-06-19T07:02:40.180Z,100837.75
2023-06-19T07:05:08.225Z,100833.19
2023-06-19T07:07:34.625Z,100830.47
2023-06-19T07:10:01.042Z,100840.38
2023-06-19T07:12:27.472Z,100839.63
2023-06-19T07:14:57.062Z,100836.00
2023-06-19T07:17:23.687Z,100822.59
2023-06-19T07:19:50.105Z,100825.28
2023-06-19T07:22:16.526Z,100832.31
2023-06-19T07:24:42.997Z,100832.03
2023-06-19T07:27:09.475Z,100845.41
2023-06-19T07:29:35.985Z,100831.81
2023-06-19T07:32:03.999Z,100832.88
2023-06-19T07:34:31.841Z,100851.38
2023-06-19T07:36:58.273Z,100843.44
2023-06-19T07:39:24.685Z,100838.97
2023-06-19T07:41:51.144Z,100849.28
2023-06-19T07:44:19.044Z,100848.28
2023-06-19T07:46:45.526Z,100847.34
2023-06-19T07:49:12.018Z,100844.53
2023-06-19T07:51:38.435Z,100846.53
2023-06-19T07:54:04.920Z,100845.75
2023-06-19T07:56:31.470Z,100851.94
2023-06-19T07:58:57.909Z,100844.41
2023-06-19T08:01:24.336Z,100846.75
2023-06-19T08:03:50.889Z,100852.00
2023-06-19T08:06:17.450Z,100840.81
2023-06-19T08:08:43.889Z,100849.69
2023-06-19T08:11:10.309Z,100849.63
2023-06-19T08:13:36.727Z,100843.47
2023-06-19T08:16:03.154Z,100844.94
2023-06-19T08:18:29.771Z,100847.72
2023-06-19T08:20:56.267Z,100848.06
2023-06-19T08:23:22.717Z,100853.31
2023-06-19T08:25:49.153Z,100854.22
2023-06-19T08:28:15.614Z,100853.22
2023-06-19T08:30:42.065Z,100854.03
2023-06-19T08:33:09.468Z,100856.09
2023-06-19T08:35:35.938Z,100861.66
2023-06-19T08:38:02.408Z,100851.25
2023-06-19T08:40:29.073Z,100859.50
2023-06-19T08:42:56.917Z,100855.03
2023-06-19T08:45:23.357Z,100850.38
2023-06-19T08:47:50.138Z,100844.91
2023-06-19T08:50:17.363Z,100836.19
2023-06-19T08:52:43.785Z,100838.25
2023-06-19T08:55:10.276Z,100836.19
2023-06-19T08:57:39.414Z,100831.59
2023-06-19T09:00:07.968Z,100826.78
2023-06-19T09:02:52.305Z,100830.34
2023-06-19T09:05:24.370Z,100833.78
2023-06-19T09:07:59.508Z,100840.94
2023-06-19T09:10:26.155Z,100844.56
2023-06-19T09:13:05.764Z,100838.97
2023-06-19T09:15:38.733Z,100848.06
2023-06-19T09:18:06.028Z,100848.66
2023-06-19T09:20:34.481Z,100857.84
2023-06-19T09:23:01.562Z,100854.28
2023-06-19T09:25:28.136Z,100852.63
2023-06-19T09:27:58.374Z,100851.59
2023-06-19T09:30:24.951Z,100858.47
2023-06-19T09:32:51.711Z,100844.03
2023-06-19T09:35:18.436Z,100849.28
2023-06-19T09:37:46.194Z,100846.25
2023-06-19T09:40:13.229Z,100848.16
2023-06-19T09:42:44.282Z,100859.50
2023-06-19T09:45:13.287Z,100856.63
2023-06-19T09:47:50.046Z,100857.84
2023-06-19T09:50:18.409Z,100862.59
2023-06-19T09:52:45.631Z,100863.41
2023-06-19T09:55:16.913Z,100858.78
2023-06-19T09:57:45.289Z,100850.41
2023-06-19T10:00:14.002Z,100852.19
2023-06-19T10:02:42.408Z,100845.16
2023-06-19T10:05:14.469Z,100837.63
2023-06-19T10:07:50.591Z,100830.91
2023-06-19T10:10:25.414Z,100827.56
2023-06-19T10:12:53.412Z,100824.78
2023-06-19T10:15:22.008Z,100822.97
2023-06-19T10:17:53.405Z,100822.53
2023-06-19T10:20:38.320Z,100817.28
2023-06-19T10:23:25.040Z,100814.25
2023-06-19T10:25:54.442Z,100810.72
2023-06-19T10:28:29.756Z,100809.50
2023-06-19T10:31:00.268Z,100811.59
2023-06-19T10:33:29.235Z,100805.91
2023-06-19T10:35:55.994Z,100791.72
2023-06-19T10:38:22.612Z,100787.31
2023-06-19T10:40:49.068Z,100793.75
2023-06-19T10:43:26.428Z,100785.78
2023-06-19T10:45:52.993Z,100785.50
2023-06-19T10:48:23.870Z,100784.78
2023-06-19T10:50:51.081Z,100788.03
2023-06-19T10:53:33.900Z,100770.28
2023-06-19T10:56:02.552Z,100760.75
2023-06-19T10:58:30.215Z,100755.63
2023-06-19T11:00:57.969Z,100756.25
2023-06-19T11:03:24.674Z,100757.28
2023-06-19T11:05:51.197Z,100750.53
2023-06-19T11:08:22.440Z,100749.81
2023-06-19T11:10:49.480Z,100760.31
2023-06-19T11:13:21.029Z,100758.22
2023-06-19T11:15:50.557Z,100768.22
2023-06-19T11:18:18.513Z,100766.22
2023-06-19T11:20:52.003Z,100771.44
2023-06-19T11:23:27.022Z,100775.88
2023-06-19T11:25:53.766Z,100773.47
2023-06-19T11:28:23.172Z,100782.03
2023-06-19T11:30:58.390Z,100762.81
2023-06-19T11:33:25.300Z,100767.94
2023-06-19T11:35:53.581Z,100774.59
2023-06-19T11:38:24.450Z,100762.25
2023-06-19T11:40:51.191Z,100761.25
2023-06-19T11:43:29.142Z,100769.88
2023-06-19T11:46:03.210Z,100762.16
2023-06-19T11:48:29.725Z,100764.34
2023-06-19T11:50:56.262Z,100762.94
2023-06-19T11:53:23.851Z,100765.19
2023-06-19T11:55:51.398Z,100778.88
2023-06-19T11:58:18.789Z,100763.00
2023-06-19T12:00:45.193Z,100776.56
2023-06-19T12:03:11.820Z,100769.50
2023-06-19T12:05:38.802Z,100758.13
2023-06-19T12:08:06.516Z,100761.03
2023-06-19T12:10:33.274Z,100757.88
2023-06-19T12:12:59.692Z,100754.59
2023-06-19T12:15:26.214Z,100754.66
2023-06-19T12:17:53.334Z,100756.03
2023-06-19T12:20:20.253Z,100751.19
2023-06-19T12:22:46.669Z,100748.19
2023-06-19T12:25:13.088Z,100751.38
2023-06-19T12:27:39.622Z,100743.59
2023-06-19T12:30:06.900Z,100745.81
2023-06-19T12:32:33.316Z,100735.97
2023-06-19T12:34:59.842Z,100740.91
2023-06-19T12:37:26.372Z,100742.09
2023-06-19T12:39:52.776Z,100743.50
2023-06-19T12:42:19.212Z,100749.16
2023-06-19T12:44:45.947Z,100758.59
2023-06-19T12:47:12.634Z,100740.22
2023-06-19T12:49:39.095Z,100741.50
2023-06-19T12:52:05.916Z,100732.50
2023-06-19T12:54:32.788Z,100736.34
2023-06-19T12:56:59.240Z,100735.22
2023-06-19T12:59:26.000Z,100727.41
2023-06-19T13:01:52.457Z,100733.91
2023-06-19T13:04:18.968Z,100725.91
2023-06-19T13:06:45.417Z,100727.22
2023-06-19T13:09:11.860Z,100719.06
2023-06-19T13:11:38.285Z,100714.78
2023-06-19T13:14:05.423Z,100718.94
2023-06-19T13:16:45.341Z,100723.78
2023-06-19T13:19:12.899Z,100724.53
2023-06-19T13:21:39.320Z,100716.09
2023-06-19T13:24:05.993Z,100711.47
2023-06-19T13:26:32.492Z,100720.78
2023-06-19T13:28:59.990Z,100708.56
2023-06-19T13:31:26.742Z,100723.63
2023-06-19T13:33:53.320Z,100728.06
2023-06-19T13:36:20.518Z,100712.25
2023-06-19T13:38:47.862Z,100706.41
2023-06-19T13:41:14.303Z,100709.44
2023-06-19T13:43:41.194Z,100694.63
2023-06-19T13:46:09.182Z,100695.75
2023-06-19T13:48:35.579Z,100695.53
2023-06-19T13:51:02.033Z,100685.69
2023-06-19T13:53:30.757Z,100692.63
2023-06-19T13:55:57.224Z,100696.81
2023-06-19T13:58:23.681Z,100688.50
2023-06-19T14:00:50.167Z,100691.63
2023-06-19T14:03:17.278Z,100696.50
2023-06-19T14:05:44.907Z,100695.22
2023-06-19T14:08:11.385Z,100693.03
2023-06-19T14:10:38.058Z,100696.94
2023-06-19T14:13:04.492Z,100689.91
2023-06-19T14:15:30.920Z,100701.72
2023-06-19T14:17:57.403Z,100710.50
2023-06-19T14:20:24.007Z,100697.75
2023-06-19T14:22:50.615Z,100710.50
2023-06-19T14:25:17.003Z,100699.69
2023-06-19T14:27:43.457Z,100703.25
2023-06-19T14:30:10.422Z,100705.56
2023-06-19T14:32:40.349Z,100701.88
2023-06-19T14:35:07.640Z,100701.69
2023-06-19T14:37:34.222Z,100705.91
2023-06-19T14:40:00.676Z,100709.22
2023-06-19T14:42:27.230Z,100714.00
2023-06-19T14:44:53.660Z,100711.19
2023-06-19T14:47:20.142Z,100713.91
2023-06-19T14:49:46.913Z,100713.97
2023-06-19T14:52:13.339Z,100716.84
2023-06-19T14:54:39.854Z,100710.88
2023-06-19T14:57:06.614Z,100711.34
2023-06-19T14:59:33.032Z,100710.81
2023-06-19T15:01:59.469Z,100701.59
2023-06-19T15:04:26.025Z,100708.22
2023-06-19T15:06:52.502Z,100700.63
2023-06-19T15:09:18.915Z,100707.06
2023-06-19T15:11:45.316Z,100704.88
2023-06-19T15:14:11.792Z,100710.41
2023-06-19T15:16:38.320Z,100707.94
2023-06-19T15:19:04.927Z,100711.06
2023-06-19T15:21:31.392Z,100712.13
2023-06-19T15:23:57.968Z,100704.38
2023-06-19T15:26:24.673Z,100705.44
2023-06-19T15:28:54.437Z,100698.34
2023-06-19T15:31:24.401Z,100703.16
2023-06-19T15:33:51.200Z,100700.47
2023-06-19T15:36:18.093Z,100700.72
2023-06-19T15:38:45.052Z,100709.75
2023-06-19T15:41:11.465Z,100707.41
2023-06-19T15:43:38.700Z,100703.19
2023-06-19T15:46:07.212Z,100691.66
2023-06-19T15:48:34.085Z,100693.78
2023-06-19T15:51:00.528Z,100696.47
2023-06-19T15:53:26.927Z,100688.00
2023-06-19T15:55:53.326Z,100698.19
2023-06-19T15:58:19.734Z,100688.47
2023-06-19T16:00:46.200Z,100690.50
2023-06-19T16:03:12.670Z,100692.31
2023-06-19T16:05:39.161Z,100691.34
2023-06-19T16:08:05.680Z,100688.94
2023-06-19T16:10:32.205Z,100678.78
2023-06-19T16:12:58.634Z,100684.03
2023-06-19T16:15:28.909Z,100681.75
2023-06-19T16:17:56.343Z,100672.72
2023-06-19T16:20:23.433Z,100678.66
2023-06-19T16:22:53.277Z,100688.91
2023-06-19T16:25:19.751Z,100684.25
2023-06-19T16:27:46.214Z,100686.41
2023-06-19T16:30:12.795Z,100682.22
2023-06-19T16:32:39.332Z,100677.69
2023-06-19T16:35:06.379Z,100681.41
2023-06-19T16:37:32.868Z,100681.34
2023-06-19T16:39:59.313Z,100677.78
2023-06-19T16:42:26.635Z,100676.41
2023-06-19T16:44:54.326Z,100679.50
2023-06-19T16:47:21.064Z,100674.31
2023-06-19T16:49:47.535Z,100672.66
2023-06-19T16:52:14.137Z,100684.38
2023-06-19T16:54:40.604Z,100689.78
2023-06-19T16:57:07.144Z,100687.78
2023-06-19T16:59:33.561Z,100682.06
2023-06-19T17:02:00.030Z,100683.44
2023-06-19T17:04:26.446Z,100682.84
2023-06-19T17:06:52.859Z,100683.28
2023-06-19T17:09:19.263Z,100676.28
2023-06-19T17:11:45.704Z,100682.56
2023-06-19T17:14:12.122Z,100679.75
2023-06-19T17:16:38.574Z,100669.41
2023-06-19T17:19:06.502Z,100673.97
2023-06-19T17:21:33.247Z,100670.53
2023-06-19T17:23:59.681Z,100679.00
2023-06-19T17:26:26.217Z,100672.63
2023-06-19T17:28:52.621Z,100683.25
2023-06-19T17:31:19.026Z,100677.72
2023-06-19T17:33:45.422Z,100678.69
2023-06-19T17:36:11.821Z,100675.19
2023-06-19T17:38:38.290Z,100677.13
2023-06-19T17:41:05.390Z,100675.34
2023-06-19T17:43:31.873Z,100682.31
2023-06-19T17:45:58.319Z,100680.44
2023-06-19T17:48:24.760Z,100678.56
2023-06-19T17:50:51.176Z,100682.69
2023-06-19T17:53:17.602Z,100678.81
2023-06-19T17:55:44.373Z,100671.13
2023-06-19T17:58:10.879Z,100672.03
2023-06-19T18:00:37.341Z,100674.03
2023-06-19T18:03:05.441Z,100670.19
2023-06-19T18:05:31.973Z,100669.97
2023-06-19T18:07:58.416Z,100671.03
2023-06-19T18:10:25.034Z,100668.97
2023-06-19T18:12:51.569Z,100669.13
2023-06-19T18:15:18.112Z,100677.44
2023-06-19T18:17:44.573Z,100674.16
2023-06-19T18:20:11.920Z,100673.56
2023-06-19T18:22:39.617Z,100671.56
2023-06-19T18:25:06.460Z,100680.63
2023-06-19T18:27:33.399Z,100676.13
2023-06-19T18:30:02.221Z,100665.16
2023-06-19T18:32:30.785Z,100675.88
2023-06-19T18:34:57.238Z,100676.44
2023-06-19T18:37:23.698Z,100677.94
2023-06-19T18:39:52.976Z,100683.56
2023-06-19T18:42:19.380Z,100673.59
2023-06-19T18:44:45.781Z,100677.91
2023-06-19T18:47:12.181Z,100686.28
2023-06-19T18:49:38.612Z,100683.22
2023-06-19T18:52:05.508Z,100685.59
2023-06-19T18:54:31.919Z,100678.41
2023-06-19T18:56:58.341Z,100679.94
2023-06-19T18:59:24.785Z,100683.88
2023-06-19T19:01:51.252Z,100689.66
2023-06-19T19:04:17.778Z,100687.81
2023-06-19T19:06:44.183Z,100689.06
2023-06-19T19:09:10.689Z,100693.56
2023-06-19T19:11:37.151Z,100689.53
2023-06-19T19:14:03.640Z,100695.31
2023-06-19T19:16:30.101Z,100694.34
2023-06-19T19:18:56.527Z,100695.84
2023-06-19T19:21:22.956Z,100698.53
2023-06-19T19:23:49.405Z,100703.06
2023-06-19T19:26:15.840Z,100702.47
2023-06-19T19:28:42.249Z,100699.31
2023-06-19T19:31:08.715Z,100696.53
2023-06-19T19:33:35.191Z,100711.78
2023-06-19T19:36:02.300Z,100719.22
2023-06-19T19:38:28.707Z,100718.31
2023-06-19T19:40:55.109Z,100719.31
2023-06-19T19:43:21.514Z,100719.47
2023-06-19T19:45:48.054Z,100716.22
2023-06-19T19:48:14.552Z,100717.28
2023-06-19T19:50:40.961Z,100720.78
2023-06-19T19:53:07.357Z,100716.38
2023-06-19T19:55:33.825Z,100724.56
2023-06-19T19:58:01.952Z,100726.38
2023-06-19T20:00:29.158Z,100722.13
2023-06-19T20:02:55.649Z,100713.38
2023-06-19T20:05:22.136Z,100720.56
2023-06-19T20:07:48.576Z,100724.13
2023-06-19T20:10:15.080Z,100731.47
2023-06-19T20:12:41.484Z,100726.25
2023-06-19T20:15:08.616Z,100728.84
2023-06-19T20:17:35.078Z,100732.50
2023-06-19T20:20:04.932Z,100738.84
2023-06-19T20:22:31.410Z,100743.25
2023-06-19T20:24:57.836Z,100740.66
2023-06-19T20:27:24.247Z,100746.03
2023-06-19T20:29:50.652Z,100739.94
2023-06-19T20:32:17.060Z,100741.09
2023-06-19T20:34:43.488Z,100748.00
2023-06-19T20:37:09.993Z,100743.69
2023-06-19T20:39:36.417Z,100749.13
2023-06-19T20:42:03.600Z,100748.13
2023-06-19T20:44:30.288Z,100748.22
2023-06-19T20:46:58.523Z,100755.44
2023-06-19T20:49:26.311Z,100751.06
2023-06-19T20:51:52.768Z,100743.97
2023-06-19T20:54:20.078Z,100743.16
2023-06-19T20:56:46.466Z,100740.44
2023-06-19T20:59:13.057Z,100743.13
2023-06-19T21:01:40.474Z,100750.31
2023-06-19T21:04:07.094Z,100749.47
2023-06-19T21:06:34.592Z,100755.78
2023-06-19T21:09:04.058Z,100750.41
2023-06-19T21:11:30.522Z,100754.03
2023-06-19T21:13:56.958Z,100746.06
2023-06-19T21:16:23.873Z,100755.97
2023-06-19T21:18:51.285Z,100747.16
2023-06-19T21:21:17.714Z,100752.38
2023-06-19T21:23:44.134Z,100749.75
2023-06-19T21:26:10.550Z,100755.22
2023-06-19T21:28:36.951Z,100752.56
2023-06-19T21:31:03.350Z,100749.06
2023-06-19T21:33:33.180Z,100762.47
2023-06-19T21:35:59.639Z,100751.91
2023-06-19T21:38:28.711Z,100758.09
2023-06-19T21:40:55.141Z,100766.06
2023-06-19T21:43:21.585Z,100765.16
2023-06-19T21:45:48.147Z,100767.91
2023-06-19T21:48:14.754Z,100764.34
2023-06-19T21:50:41.218Z,100762.56
2023-06-19T21:53:07.655Z,100765.22
2023-06-19T21:55:34.162Z,100771.53
2023-06-19T21:58:01.009Z,100767.06
2023-06-19T22:00:28.956Z,100766.19
2023-06-19T22:02:57.062Z,100769.81
2023-06-19T22:05:23.576Z,100772.50
2023-06-19T22:07:50.332Z,100769.84
2023-06-19T22:10:17.126Z,100773.44
2023-06-19T22:12:43.535Z,100770.81
2023-06-19T22:15:10.411Z,100772.63
2023-06-19T22:17:36.937Z,100777.06
2023-06-19T22:20:04.589Z,100773.56
2023-06-19T22:22:31.033Z,100775.31
2023-06-19T22:24:57.485Z,100777.09
2023-06-19T22:27:23.924Z,100778.91
2023-06-19T22:29:50.362Z,100774.47
2023-06-19T22:32:16.797Z,100778.97
2023-06-19T22:34:43.220Z,100786.94
2023-06-19T22:37:09.668Z,100777.19
2023-06-19T22:39:36.074Z,100776.31
2023-06-19T22:42:03.215Z,100779.81
2023-06-19T22:44:29.632Z,100778.13
2023-06-19T22:46:56.227Z,100779.88
2023-06-19T22:49:22.620Z,100775.50
2023-06-19T22:51:49.017Z,100779.03
2023-06-19T22:54:15.435Z,100781.72
2023-06-19T22:56:41.884Z,100779.03
2023-06-19T22:59:08.319Z,100781.75
2023-06-19T23:01:34.975Z,100779.06
2023-06-19T23:04:01.523Z,100787.06
2023-06-19T23:06:27.942Z,100790.66
2023-06-19T23:08:54.343Z,100790.66
2023-06-19T23:11:20.744Z,100786.31
2023-06-19T23:13:47.234Z,100788.06
2023-06-19T23:16:13.673Z,100789.81
2023-06-19T23:18:40.082Z,100785.38
2023-06-19T23:21:06.487Z,100789.03
2023-06-19T23:23:33.572Z,100788.09
2023-06-19T23:26:02.603Z,100796.09
2023-06-19T23:28:32.480Z,100789.00
2023-06-19T23:30:59.808Z,100797.84
2023-06-19T23:33:26.984Z,100791.66
2023-06-19T23:35:57.309Z,100803.22
2023-06-19T23:38:25.233Z,100800.59
2023-06-19T23:40:52.100Z,100800.56
2023-06-19T23:43:19.030Z,100811.19
2023-06-19T23:45:46.021Z,100805.00
2023-06-19T23:48:12.750Z,100805.91
2023-06-19T23:50:39.681Z,100810.34
2023-06-19T23:53:06.369Z,100806.84
2023-06-19T23:55:32.788Z,100819.28
2023-06-19T23:57:59.170Z,100817.47
